createdAt,value
2023-04-12T00:00:17.838Z,99735.14
2023-04-12T00:01:41.498Z,99730.16
2023-04-12T00:02:45.492Z,99733.07
2023-04-12T00:03:51.159Z,99741.85
2023-04-12T00:04:57.601Z,99737.09
2023-04-12T00:06:03.566Z,99741.42
2023-04-12T00:07:06.694Z,99739.59
2023-04-12T00:08:10.892Z,99734.24
2023-04-12T00:09:14.596Z,99733.81
2023-04-12T00:10:17.532Z,99734.21
2023-04-12T00:11:20.895Z,99734.64
2023-04-12T00:12:24.152Z,99727.17
2023-04-12T00:13:27.034Z,99728.36
2023-04-12T00:14:30.037Z,99723.30
2023-04-12T00:15:32.940Z,99720.38
2023-04-12T00:16:37.166Z,99721.63
2023-04-12T00:17:40.357Z,99726.87
2023-04-12T00:18:45.891Z,99724.91
2023-04-12T00:19:50.178Z,99728.80
2023-04-12T00:20:53.364Z,99724.05
2023-04-12T00:21:56.665Z,99721.98
2023-04-12T00:22:59.494Z,99727.84
2023-04-12T00:24:02.424Z,99734.20
2023-04-12T00:25:06.698Z,99732.59
2023-04-12T00:26:09.612Z,99740.68
2023-04-12T00:27:13.318Z,99738.96
2023-04-12T00:28:16.348Z,99740.30
2023-04-12T00:29:19.742Z,99743.85
2023-04-12T00:30:24.010Z,99737.50
2023-04-12T00:31:27.003Z,99732.63
2023-04-12T00:32:30.002Z,99739.66
2023-04-12T00:33:34.346Z,99729.09
2023-04-12T00:34:37.181Z,99736.08
2023-04-12T00:35:40.060Z,99735.66
2023-04-12T00:36:43.350Z,99730.95
2023-04-12T00:37:46.554Z,99739.34
2023-04-12T00:38:49.445Z,99747.88
2023-04-12T00:39:52.796Z,99744.84
2023-04-12T00:40:55.950Z,99747.05
2023-04-12T00:42:03.563Z,99733.57
2023-04-12T00:43:06.538Z,99733.68
2023-04-12T00:44:10.148Z,99730.98
2023-04-12T00:45:14.465Z,99735.25
2023-04-12T00:46:20.008Z,99733.63
2023-04-12T00:47:23.075Z,99730.50
2023-04-12T00:48:28.986Z,99733.66
2023-04-12T00:49:34.372Z,99726.02
2023-04-12T00:50:37.419Z,99729.66
2023-04-12T00:51:40.626Z,99727.20
2023-04-12T00:52:43.529Z,99728.77
2023-04-12T00:53:46.511Z,99717.52
2023-04-12T00:54:50.015Z,99721.77
2023-04-12T00:55:53.301Z,99724.20
2023-04-12T00:56:59.986Z,99711.55
2023-04-12T00:58:03.651Z,99715.63
2023-04-12T00:59:06.748Z,99720.03
2023-04-12T01:00:13.879Z,99722.60
2023-04-12T01:01:17.376Z,99714.72
2023-04-12T01:02:20.559Z,99711.80
2023-04-12T01:03:24.224Z,99710.79
2023-04-12T01:04:28.904Z,99718.80
2023-04-12T01:05:36.359Z,99713.16
2023-04-12T01:07:05.304Z,99720.41
2023-04-12T01:08:34.243Z,99710.52
2023-04-12T01:10:05.024Z,99709.67
2023-04-12T01:11:40.007Z,99708.69
2023-04-12T01:13:07.645Z,99721.76
2023-04-12T01:14:34.167Z,99712.02
2023-04-12T01:15:45.670Z,99716.19
2023-04-12T01:16:51.327Z,99713.72
2023-04-12T01:18:00.034Z,99714.40
2023-04-12T01:19:13.751Z,99716.81
2023-04-12T01:20:23.579Z,99717.30
2023-04-12T01:21:31.339Z,99716.38
2023-04-12T01:22:53.498Z,99723.77
2023-04-12T01:24:14.111Z,99719.52
2023-04-12T01:25:39.943Z,99724.29
2023-04-12T01:26:48.533Z,99727.77
2023-04-12T01:27:57.044Z,99731.23
2023-04-12T01:29:03.172Z,99734.45
2023-04-12T01:30:08.380Z,99738.06
2023-04-12T01:31:14.022Z,99731.38
2023-04-12T01:32:18.470Z,99730.95
2023-04-12T01:33:22.234Z,99738.44
2023-04-12T01:34:28.493Z,99729.80
2023-04-12T01:35:34.638Z,99731.48
2023-04-12T01:36:40.064Z,99734.83
2023-04-12T01:37:43.988Z,99733.91
2023-04-12T01:38:47.064Z,99733.38
2023-04-12T01:39:50.564Z,99731.64
2023-04-12T01:40:55.039Z,99734.73
2023-04-12T01:41:57.921Z,99732.73
2023-04-12T01:43:05.339Z,99731.38
2023-04-12T01:44:08.596Z,99730.98
2023-04-12T01:45:11.865Z,99734.29
2023-04-12T01:46:22.799Z,99730.13
2023-04-12T01:47:27.203Z,99727.71
2023-04-12T01:48:30.254Z,99728.33
2023-04-12T01:49:45.123Z,99727.64
2023-04-12T01:51:06.498Z,99726.98
2023-04-12T01:52:18.948Z,99730.98
2023-04-12T01:53:48.881Z,99734.71
2023-04-12T01:54:57.491Z,99731.29
2023-04-12T01:56:07.417Z,99740.91
2023-04-12T01:57:11.086Z,99736.86
2023-04-12T01:58:17.401Z,99738.06
2023-04-12T01:59:24.371Z,99736.36
2023-04-12T02:00:28.164Z,99737.91
2023-04-12T02:01:31.574Z,99737.10
2023-04-12T02:02:36.650Z,99730.07
2023-04-12T02:03:43.175Z,99731.90
2023-04-12T02:04:47.743Z,99728.69
2023-04-12T02:05:52.313Z,99725.11
2023-04-12T02:06:57.409Z,99726.98
2023-04-12T02:08:02.943Z,99728.75
2023-04-12T02:09:06.625Z,99723.74
2023-04-12T02:10:14.777Z,99725.19
2023-04-12T02:11:17.678Z,99720.83
2023-04-12T02:12:20.834Z,99722.79
2023-04-12T02:13:23.830Z,99715.81
2023-04-12T02:14:27.190Z,99722.11
2023-04-12T02:15:30.886Z,99716.33
2023-04-12T02:16:35.951Z,99727.53
2023-04-12T02:17:41.061Z,99725.05
2023-04-12T02:18:44.920Z,99726.36
2023-04-12T02:19:50.466Z,99721.89
2023-04-12T02:20:55.703Z,99719.40
2023-04-12T02:21:58.592Z,99720.77
2023-04-12T02:23:01.578Z,99721.58
2023-04-12T02:24:04.748Z,99708.22
2023-04-12T02:25:08.008Z,99718.48
2023-04-12T02:26:11.654Z,99711.83
2023-04-12T02:27:14.563Z,99712.17
2023-04-12T02:28:17.450Z,99709.08
2023-04-12T02:29:20.328Z,99709.09
2023-04-12T02:30:23.932Z,99709.91
2023-04-12T02:31:30.639Z,99713.61
2023-04-12T02:32:33.591Z,99708.65
2023-04-12T02:33:37.181Z,99708.08
2023-04-12T02:34:44.198Z,99713.48
2023-04-12T02:35:52.572Z,99709.81
2023-04-12T02:36:56.069Z,99701.25
2023-04-12T02:37:58.984Z,99703.02
2023-04-12T02:39:05.354Z,99704.73
2023-04-12T02:40:11.612Z,99709.98
2023-04-12T02:41:19.060Z,99708.25
2023-04-12T02:42:21.965Z,99708.19
2023-04-12T02:43:25.551Z,99705.46
2023-04-12T02:44:34.728Z,99712.72
2023-04-12T02:45:47.688Z,99707.95
2023-04-12T02:46:50.827Z,99703.79
2023-04-12T02:47:55.893Z,99712.46
2023-04-12T02:49:01.702Z,99713.48
2023-04-12T02:50:09.427Z,99713.42
2023-04-12T02:51:21.157Z,99714.27
2023-04-12T02:52:25.764Z,99717.41
2023-04-12T02:53:42.420Z,99711.73
2023-04-12T02:54:57.368Z,99707.98
2023-04-12T02:56:01.359Z,99718.58
2023-04-12T02:57:05.414Z,99715.04
2023-04-12T02:58:11.195Z,99721.66
2023-04-12T02:59:18.744Z,99723.64
2023-04-12T03:00:39.489Z,99720.77
2023-04-12T03:01:46.940Z,99729.30
2023-04-12T03:02:59.119Z,99727.84
2023-04-12T03:04:04.231Z,99736.92
2023-04-12T03:05:27.678Z,99733.09
2023-04-12T03:06:32.119Z,99736.75
2023-04-12T03:07:38.804Z,99731.50
2023-04-12T03:08:42.148Z,99734.84
2023-04-12T03:09:47.004Z,99728.99
2023-04-12T03:10:56.169Z,99731.35
2023-04-12T03:11:59.834Z,99734.95
2023-04-12T03:13:05.002Z,99727.17
2023-04-12T03:14:17.456Z,99724.44
2023-04-12T03:15:23.507Z,99734.95
2023-04-12T03:16:29.743Z,99735.15
2023-04-12T03:17:41.227Z,99737.67
2023-04-12T03:18:44.507Z,99728.27
2023-04-12T03:19:49.259Z,99729.56
2023-04-12T03:20:56.358Z,99735.85
2023-04-12T03:22:00.065Z,99723.03
2023-04-12T03:23:03.261Z,99728.00
2023-04-12T03:24:07.336Z,99726.70
2023-04-12T03:25:12.746Z,99728.09
2023-04-12T03:26:20.633Z,99732.84
2023-04-12T03:27:32.982Z,99731.20
2023-04-12T03:28:36.293Z,99727.80
2023-04-12T03:29:42.327Z,99729.52
2023-04-12T03:30:46.163Z,99732.59
2023-04-12T03:31:49.438Z,99733.42
2023-04-12T03:32:52.407Z,99732.29
2023-04-12T03:33:56.069Z,99732.45
2023-04-12T03:35:00.424Z,99731.55
2023-04-12T03:36:04.549Z,99735.85
2023-04-12T03:37:07.578Z,99733.73
2023-04-12T03:38:15.459Z,99728.65
2023-04-12T03:39:18.930Z,99727.46
2023-04-12T03:40:25.136Z,99732.27
2023-04-12T03:41:33.789Z,99727.31
2023-04-12T03:42:39.700Z,99738.13
2023-04-12T03:43:50.444Z,99733.83
2023-04-12T03:44:54.973Z,99730.20
2023-04-12T03:45:58.545Z,99736.12
2023-04-12T03:47:01.793Z,99743.54
2023-04-12T03:48:12.009Z,99739.31
2023-04-12T03:49:18.686Z,99744.77
2023-04-12T03:50:23.317Z,99742.34
2023-04-12T03:51:31.325Z,99741.08
2023-04-12T03:52:40.348Z,99746.73
2023-04-12T03:53:43.548Z,99737.09
2023-04-12T03:54:50.258Z,99739.73
2023-04-12T03:56:00.813Z,99740.83
2023-04-12T03:57:07.363Z,99740.45
2023-04-12T03:58:31.186Z,99729.86
2023-04-12T03:59:34.338Z,99733.37
2023-04-12T04:00:37.650Z,99735.64
2023-04-12T04:01:43.557Z,99740.96
2023-04-12T04:02:47.452Z,99736.36
2023-04-12T04:03:51.162Z,99728.27
2023-04-12T04:05:04.102Z,99725.40
2023-04-12T04:06:08.290Z,99733.06
2023-04-12T04:07:12.961Z,99730.10
2023-04-12T04:08:17.685Z,99729.32
2023-04-12T04:09:29.573Z,99735.73
2023-04-12T04:10:33.414Z,99731.69
2023-04-12T04:11:37.835Z,99732.94
2023-04-12T04:12:42.334Z,99736.65
2023-04-12T04:13:47.210Z,99736.27
2023-04-12T04:14:54.372Z,99731.79
2023-04-12T04:16:10.312Z,99731.23
2023-04-12T04:17:14.941Z,99736.56
2023-04-12T04:18:18.020Z,99741.92
2023-04-12T04:19:21.707Z,99735.97
2023-04-12T04:20:26.038Z,99740.74
2023-04-12T04:21:30.802Z,99748.27
2023-04-12T04:22:34.695Z,99744.94
2023-04-12T04:23:38.988Z,99744.45
2023-04-12T04:24:42.768Z,99748.56
2023-04-12T04:25:46.391Z,99750.29
2023-04-12T04:26:50.443Z,99745.23
2023-04-12T04:28:02.858Z,99748.48
2023-04-12T04:29:06.531Z,99745.77
2023-04-12T04:30:15.360Z,99746.63
2023-04-12T04:31:22.793Z,99748.38
2023-04-12T04:32:26.494Z,99749.20
2023-04-12T04:33:33.753Z,99754.96
2023-04-12T04:34:37.657Z,99755.72
2023-04-12T04:35:45.910Z,99750.22
2023-04-12T04:37:02.783Z,99744.98
2023-04-12T04:38:05.793Z,99753.98
2023-04-12T04:39:10.064Z,99745.90
2023-04-12T04:40:21.453Z,99755.31
2023-04-12T04:41:26.418Z,99756.83
2023-04-12T04:42:33.014Z,99759.31
2023-04-12T04:43:46.882Z,99757.17
2023-04-12T04:45:02.631Z,99754.86
2023-04-12T04:46:07.300Z,99751.15
2023-04-12T04:47:10.539Z,99748.25
2023-04-12T04:48:13.475Z,99750.11
2023-04-12T04:49:16.506Z,99747.54
2023-04-12T04:50:24.157Z,99753.80
2023-04-12T04:51:27.704Z,99758.53
2023-04-12T04:52:31.058Z,99754.69
2023-04-12T04:53:38.484Z,99758.75
2023-04-12T04:54:41.807Z,99763.61
2023-04-12T04:55:44.920Z,99765.55
2023-04-12T04:56:47.795Z,99768.36
2023-04-12T04:57:52.484Z,99764.20
2023-04-12T04:58:57.017Z,99771.40
2023-04-12T05:00:00.931Z,99775.27
2023-04-12T05:01:05.300Z,99770.74
2023-04-12T05:02:08.793Z,99760.44
2023-04-12T05:03:12.070Z,99766.15
2023-04-12T05:04:15.519Z,99768.27
2023-04-12T05:05:18.558Z,99766.09
2023-04-12T05:06:22.526Z,99762.44
2023-04-12T05:07:26.252Z,99763.16
2023-04-12T05:08:29.413Z,99765.46
2023-04-12T05:09:32.305Z,99765.69
2023-04-12T05:10:35.741Z,99771.45
2023-04-12T05:11:39.057Z,99769.30
2023-04-12T05:12:45.929Z,99773.95
2023-04-12T05:13:50.319Z,99766.81
2023-04-12T05:14:58.218Z,99767.58
2023-04-12T05:16:12.410Z,99768.48
2023-04-12T05:17:16.056Z,99777.64
2023-04-12T05:18:22.003Z,99779.24
2023-04-12T05:19:26.248Z,99781.31
2023-04-12T05:20:29.801Z,99782.73
2023-04-12T05:21:33.892Z,99782.79
2023-04-12T05:22:36.783Z,99783.45
2023-04-12T05:23:44.749Z,99783.84
2023-04-12T05:24:48.651Z,99782.66
2023-04-12T05:25:51.548Z,99783.84
2023-04-12T05:26:54.710Z,99785.35
2023-04-12T05:27:57.670Z,99785.27
2023-04-12T05:29:01.793Z,99784.30
2023-04-12T05:30:05.691Z,99780.65
2023-04-12T05:31:09.596Z,99782.24
2023-04-12T05:32:14.106Z,99781.79
2023-04-12T05:33:17.305Z,99782.02
2023-04-12T05:34:22.084Z,99781.10
2023-04-12T05:35:31.547Z,99778.26
2023-04-12T05:36:35.480Z,99779.79
2023-04-12T05:37:39.452Z,99778.78
2023-04-12T05:38:43.486Z,99783.76
2023-04-12T05:39:48.356Z,99783.11
2023-04-12T05:40:54.290Z,99787.31
2023-04-12T05:41:59.533Z,99785.67
2023-04-12T05:43:03.686Z,99786.98
2023-04-12T05:44:07.627Z,99786.24
2023-04-12T05:45:12.194Z,99784.00
2023-04-12T05:46:16.124Z,99784.87
2023-04-12T05:47:20.112Z,99790.14
2023-04-12T05:48:23.593Z,99780.98
2023-04-12T05:49:30.634Z,99779.17
2023-04-12T05:50:34.533Z,99785.90
2023-04-12T05:51:41.271Z,99781.61
2023-04-12T05:52:51.070Z,99782.90
2023-04-12T05:53:55.150Z,99782.23
2023-04-12T05:54:58.507Z,99780.65
2023-04-12T05:56:02.151Z,99786.63
2023-04-12T05:57:05.710Z,99776.31
2023-04-12T05:58:09.008Z,99787.61
2023-04-12T05:59:12.514Z,99783.82
2023-04-12T06:00:18.983Z,99780.86
2023-04-12T06:01:22.041Z,99781.39
2023-04-12T06:02:26.335Z,99786.02
2023-04-12T06:03:31.377Z,99787.88
2023-04-12T06:04:50.380Z,99784.99
2023-04-12T06:05:54.259Z,99781.46
2023-04-12T06:06:57.838Z,99783.31
2023-04-12T06:08:01.003Z,99778.94
2023-04-12T06:09:05.040Z,99784.36
2023-04-12T06:10:10.071Z,99780.05
2023-04-12T06:11:13.301Z,99778.52
2023-04-12T06:12:18.214Z,99781.52
2023-04-12T06:13:21.594Z,99776.98
2023-04-12T06:14:24.658Z,99775.23
2023-04-12T06:15:27.702Z,99773.09
2023-04-12T06:16:30.841Z,99776.03
2023-04-12T06:17:34.680Z,99777.14
2023-04-12T06:18:38.243Z,99778.30
2023-04-12T06:19:41.516Z,99777.73
2023-04-12T06:20:45.698Z,99776.76
2023-04-12T06:21:49.058Z,99778.88
2023-04-12T06:22:51.931Z,99775.63
2023-04-12T06:23:54.885Z,99779.17
2023-04-12T06:24:58.752Z,99776.09
2023-04-12T06:26:01.702Z,99779.81
2023-04-12T06:27:05.055Z,99782.00
2023-04-12T06:28:08.248Z,99778.21
2023-04-12T06:29:18.515Z,99782.28
2023-04-12T06:30:22.476Z,99775.03
2023-04-12T06:31:28.499Z,99776.61
2023-04-12T06:32:32.373Z,99776.62
2023-04-12T06:33:36.889Z,99781.10
2023-04-12T06:34:43.562Z,99782.80
2023-04-12T06:35:50.606Z,99781.89
2023-04-12T06:36:53.620Z,99779.32
2023-04-12T06:37:56.529Z,99776.81
2023-04-12T06:38:59.667Z,99783.46
2023-04-12T06:40:02.500Z,99780.91
2023-04-12T06:41:06.305Z,99784.21
2023-04-12T06:42:09.188Z,99781.20
2023-04-12T06:43:19.228Z,99780.14
2023-04-12T06:44:22.143Z,99779.88
2023-04-12T06:45:25.090Z,99782.54
2023-04-12T06:46:28.903Z,99778.98
2023-04-12T06:47:32.876Z,99783.98
2023-04-12T06:48:35.889Z,99780.45
2023-04-12T06:49:39.690Z,99785.16
2023-04-12T06:50:42.545Z,99784.61
2023-04-12T06:51:46.007Z,99783.95
2023-04-12T06:52:48.984Z,99784.71
2023-04-12T06:53:51.805Z,99784.02
2023-04-12T06:54:56.998Z,99781.59
2023-04-12T06:56:04.207Z,99788.94
2023-04-12T06:57:13.901Z,99788.63
2023-04-12T06:58:16.837Z,99789.63
2023-04-12T06:59:19.871Z,99790.77
2023-04-12T07:00:23.045Z,99792.21
2023-04-12T07:01:26.068Z,99790.16
2023-04-12T07:02:29.178Z,99785.64
2023-04-12T07:03:33.475Z,99780.96
2023-04-12T07:04:36.718Z,99785.30
2023-04-12T07:05:39.731Z,99786.48
2023-04-12T07:06:42.763Z,99783.33
2023-04-12T07:07:45.612Z,99789.29
2023-04-12T07:08:48.491Z,99784.66
2023-04-12T07:09:53.099Z,99796.06
2023-04-12T07:10:56.130Z,99789.14
2023-04-12T07:12:00.461Z,99788.80
2023-04-12T07:13:07.185Z,99787.93
2023-04-12T07:14:10.039Z,99791.48
2023-04-12T07:15:12.914Z,99793.70
2023-04-12T07:16:16.054Z,99794.07
2023-04-12T07:17:19.115Z,99794.71
2023-04-12T07:18:22.052Z,99795.90
2023-04-12T07:19:24.931Z,99793.95
2023-04-12T07:20:27.860Z,99799.25
2023-04-12T07:21:30.785Z,99799.14
2023-04-12T07:22:33.765Z,99799.73
2023-04-12T07:23:36.621Z,99800.45
2023-04-12T07:24:39.483Z,99798.60
2023-04-12T07:25:42.486Z,99800.18
2023-04-12T07:26:45.329Z,99802.95
2023-04-12T07:27:49.914Z,99804.87
2023-04-12T07:28:55.084Z,99803.32
2023-04-12T07:29:58.874Z,99800.40
2023-04-12T07:31:04.808Z,99800.36
2023-04-12T07:32:09.098Z,99798.85
2023-04-12T07:33:19.225Z,99793.98
2023-04-12T07:34:24.426Z,99795.14
2023-04-12T07:35:27.526Z,99795.80
2023-04-12T07:36:31.444Z,99790.85
2023-04-12T07:37:35.971Z,99793.20
2023-04-12T07:38:38.970Z,99789.81
2023-04-12T07:39:41.875Z,99787.95
2023-04-12T07:40:45.146Z,99794.38
2023-04-12T07:41:49.677Z,99800.42
2023-04-12T07:42:52.528Z,99798.05
2023-04-12T07:43:55.382Z,99801.77
2023-04-12T07:44:58.296Z,99801.16
2023-04-12T07:46:04.642Z,99794.97
2023-04-12T07:47:07.569Z,99798.48
2023-04-12T07:48:11.984Z,99798.91
2023-04-12T07:49:14.888Z,99800.33
2023-04-12T07:50:17.876Z,99799.25
2023-04-12T07:51:20.764Z,99797.96
2023-04-12T07:52:23.720Z,99798.29
2023-04-12T07:53:28.733Z,99803.76
2023-04-12T07:54:31.652Z,99805.09
2023-04-12T07:55:34.480Z,99799.36
2023-04-12T07:56:37.435Z,99802.63
2023-04-12T07:57:41.162Z,99800.93
2023-04-12T07:58:44.044Z,99799.70
2023-04-12T07:59:47.053Z,99797.70
2023-04-12T08:00:51.127Z,99796.27
2023-04-12T08:01:54.055Z,99808.38
2023-04-12T08:02:57.067Z,99801.58
2023-04-12T08:04:00.519Z,99803.98
2023-04-12T08:05:03.693Z,99801.89
2023-04-12T08:06:07.906Z,99801.61
2023-04-12T08:07:10.881Z,99803.34
2023-04-12T08:08:13.743Z,99802.48
2023-04-12T08:09:16.667Z,99799.30
2023-04-12T08:10:19.917Z,99800.20
2023-04-12T08:11:22.780Z,99804.32
2023-04-12T08:12:26.261Z,99800.44
2023-04-12T08:13:29.178Z,99806.69
2023-04-12T08:14:32.015Z,99799.45
2023-04-12T08:15:35.016Z,99804.43
2023-04-12T08:16:37.912Z,99797.23
2023-04-12T08:17:43.978Z,99801.30
2023-04-12T08:18:46.999Z,99798.02
2023-04-12T08:19:49.831Z,99807.41
2023-04-12T08:20:52.755Z,99804.00
2023-04-12T08:21:55.735Z,99802.83
2023-04-12T08:22:58.904Z,99806.13
2023-04-12T08:24:01.861Z,99812.81
2023-04-12T08:25:05.036Z,99811.40
2023-04-12T08:26:07.871Z,99812.65
2023-04-12T08:27:13.912Z,99809.23
2023-04-12T08:28:17.002Z,99810.59
2023-04-12T08:29:19.891Z,99810.53
2023-04-12T08:30:26.871Z,99806.30
2023-04-12T08:31:29.958Z,99811.55
2023-04-12T08:32:32.954Z,99810.84
2023-04-12T08:33:35.899Z,99814.67
2023-04-12T08:34:39.687Z,99826.05
2023-04-12T08:35:42.548Z,99825.16
2023-04-12T08:36:45.916Z,99828.05
2023-04-12T08:37:49.268Z,99819.54
2023-04-12T08:38:53.231Z,99819.48
2023-04-12T08:39:56.232Z,99814.77
2023-04-12T08:40:59.360Z,99820.50
2023-04-12T08:42:04.965Z,99822.38
2023-04-12T08:43:11.485Z,99823.17
2023-04-12T08:44:15.639Z,99827.65
2023-04-12T08:45:18.534Z,99825.31
2023-04-12T08:46:22.157Z,99823.71
2023-04-12T08:47:25.097Z,99827.83
2023-04-12T08:48:29.079Z,99826.37
2023-04-12T08:49:33.276Z,99822.71
2023-04-12T08:50:39.815Z,99823.34
2023-04-12T08:51:43.420Z,99824.53
2023-04-12T08:52:48.936Z,99817.83
2023-04-12T08:53:54.172Z,99813.79
2023-04-12T08:54:57.061Z,99811.92
2023-04-12T08:56:00.246Z,99806.95
2023-04-12T08:57:08.293Z,99807.27
2023-04-12T08:58:14.536Z,99801.50
2023-04-12T08:59:17.800Z,99805.80
2023-04-12T09:00:21.648Z,99795.77
2023-04-12T09:01:25.114Z,99797.05
2023-04-12T09:02:28.744Z,99786.26
2023-04-12T09:03:33.705Z,99779.98
2023-04-12T09:04:48.782Z,99780.73
2023-04-12T09:05:51.775Z,99771.20
2023-04-12T09:06:54.844Z,99772.03
2023-04-12T09:07:58.702Z,99780.65
2023-04-12T09:10:09.841Z,99775.34
2023-04-12T09:11:30.929Z,99775.98
2023-04-12T09:12:34.021Z,99773.50
2023-04-12T09:13:37.255Z,99776.80
2023-04-12T09:14:43.691Z,99774.40
2023-04-12T09:15:50.822Z,99770.28
2023-04-12T09:16:53.747Z,99770.55
2023-04-12T09:18:06.182Z,99769.64
2023-04-12T09:19:09.608Z,99767.79
2023-04-12T09:20:12.529Z,99765.25
2023-04-12T09:21:15.512Z,99765.63
2023-04-12T09:22:18.802Z,99764.16
2023-04-12T09:23:26.529Z,99768.50
2023-04-12T09:24:29.978Z,99765.47
2023-04-12T09:25:53.997Z,99772.30
2023-04-12T09:27:05.076Z,99771.00
2023-04-12T09:28:27.922Z,99768.89
2023-04-12T09:29:31.556Z,99770.79
2023-04-12T09:30:44.946Z,99778.30
2023-04-12T09:32:04.850Z,99774.02
2023-04-12T09:33:13.664Z,99773.83
2023-04-12T09:34:16.572Z,99773.98
2023-04-12T09:35:33.138Z,99780.58
2023-04-12T09:36:40.125Z,99783.56
2023-04-12T09:37:43.172Z,99782.37
2023-04-12T09:39:04.258Z,99781.50
2023-04-12T09:40:09.388Z,99778.35
2023-04-12T09:41:20.240Z,99776.69
2023-04-12T09:42:32.985Z,99774.95
2023-04-12T09:43:38.694Z,99779.60
2023-04-12T09:44:41.652Z,99786.70
2023-04-12T09:45:44.645Z,99781.94
2023-04-12T09:46:52.264Z,99786.82
2023-04-12T09:47:55.533Z,99777.94
2023-04-12T09:48:59.354Z,99776.64
2023-04-12T09:50:04.688Z,99774.07
2023-04-12T09:51:08.253Z,99766.10
2023-04-12T09:52:12.870Z,99772.40
2023-04-12T09:53:20.269Z,99773.25
2023-04-12T09:54:24.022Z,99768.95
2023-04-12T09:55:28.798Z,99772.25
2023-04-12T09:56:33.948Z,99773.65
2023-04-12T09:57:42.321Z,99769.02
2023-04-12T09:58:46.969Z,99761.98
2023-04-12T09:59:52.779Z,99769.48
2023-04-12T10:00:59.805Z,99765.64
2023-04-12T10:02:07.298Z,99764.22
2023-04-12T10:03:10.622Z,99767.12
2023-04-12T10:04:14.298Z,99762.09
2023-04-12T10:05:19.674Z,99760.67
2023-04-12T10:06:22.987Z,99757.85
2023-04-12T10:07:27.342Z,99758.00
2023-04-12T10:08:31.783Z,99760.13
2023-04-12T10:09:37.735Z,99759.73
2023-04-12T10:10:40.685Z,99763.30
2023-04-12T10:11:45.452Z,99769.04
2023-04-12T10:12:49.775Z,99761.65
2023-04-12T10:13:52.777Z,99760.44
2023-04-12T10:14:56.151Z,99760.83
2023-04-12T10:16:00.457Z,99764.53
2023-04-12T10:17:05.423Z,99756.04
2023-04-12T10:18:11.379Z,99759.61
2023-04-12T10:19:15.057Z,99758.08
2023-04-12T10:20:19.785Z,99760.17
2023-04-12T10:21:23.158Z,99770.82
2023-04-12T10:22:26.793Z,99762.41
2023-04-12T10:23:32.289Z,99763.47
2023-04-12T10:24:35.246Z,99757.49
2023-04-12T10:25:42.939Z,99761.41
2023-04-12T10:26:46.025Z,99761.51
2023-04-12T10:27:49.444Z,99766.40
2023-04-12T10:29:27.107Z,99763.70
2023-04-12T10:30:31.962Z,99770.30
2023-04-12T10:31:35.209Z,99772.03
2023-04-12T10:32:38.174Z,99770.88
2023-04-12T10:33:42.989Z,99770.67
2023-04-12T10:34:51.807Z,99771.88
2023-04-12T10:36:00.702Z,99769.55
2023-04-12T10:37:04.471Z,99771.36
2023-04-12T10:38:07.331Z,99770.80
2023-04-12T10:39:11.311Z,99774.70
2023-04-12T10:40:19.260Z,99773.09
2023-04-12T10:41:22.470Z,99769.09
2023-04-12T10:42:29.610Z,99767.95
2023-04-12T10:43:36.076Z,99769.31
2023-04-12T10:44:38.961Z,99768.55
2023-04-12T10:45:42.058Z,99764.52
2023-04-12T10:46:44.909Z,99766.54
2023-04-12T10:48:01.890Z,99766.20
2023-04-12T10:49:09.825Z,99768.61
2023-04-12T10:50:24.534Z,99769.80
2023-04-12T10:51:28.641Z,99766.83
2023-04-12T10:52:41.799Z,99766.92
2023-04-12T10:53:46.869Z,99768.89
2023-04-12T10:54:58.185Z,99763.10
2023-04-12T10:56:01.272Z,99765.73
2023-04-12T10:57:07.086Z,99763.15
2023-04-12T10:58:48.966Z,99761.27
2023-04-12T10:59:59.653Z,99763.08
2023-04-12T11:01:11.764Z,99760.95
2023-04-12T11:02:15.983Z,99758.14
2023-04-12T11:03:23.419Z,99758.79
2023-04-12T11:04:27.148Z,99762.71
2023-04-12T11:06:19.925Z,99758.39
2023-04-12T11:08:07.546Z,99757.54
2023-04-12T11:09:28.640Z,99750.60
2023-04-12T11:10:31.909Z,99746.55
2023-04-12T11:11:35.249Z,99742.55
2023-04-12T11:12:39.345Z,99743.58
2023-04-12T11:13:42.652Z,99745.77
2023-04-12T11:14:48.350Z,99745.79
2023-04-12T11:15:57.024Z,99748.06
2023-04-12T11:17:23.974Z,99747.98
2023-04-12T11:18:28.053Z,99748.06
2023-04-12T11:19:35.034Z,99746.55
2023-04-12T11:20:39.736Z,99746.17
2023-04-12T11:21:43.648Z,99745.41
2023-04-12T11:22:46.626Z,99742.49
2023-04-12T11:23:51.126Z,99742.43
2023-04-12T11:24:56.719Z,99743.46
2023-04-12T11:25:59.687Z,99745.67
2023-04-12T11:27:03.279Z,99745.86
2023-04-12T11:28:17.235Z,99742.81
2023-04-12T11:29:24.630Z,99744.81
2023-04-12T11:30:27.466Z,99748.86
2023-04-12T11:31:30.309Z,99746.55
2023-04-12T11:32:34.865Z,99745.09
2023-04-12T11:33:40.094Z,99744.69
2023-04-12T11:34:45.303Z,99741.91
2023-04-12T11:35:48.682Z,99743.22
2023-04-12T11:36:55.086Z,99742.63
2023-04-12T11:37:58.511Z,99741.54
2023-04-12T11:39:02.071Z,99738.26
2023-04-12T11:40:05.867Z,99742.88
2023-04-12T11:41:09.173Z,99747.44
2023-04-12T11:42:16.372Z,99746.52
2023-04-12T11:43:22.431Z,99745.65
2023-04-12T11:44:25.741Z,99746.65
2023-04-12T11:45:31.586Z,99745.86
2023-04-12T11:46:35.678Z,99746.36
2023-04-12T11:47:43.706Z,99736.36
2023-04-12T11:48:47.195Z,99731.30
2023-04-12T11:49:54.231Z,99729.70
2023-04-12T11:51:10.161Z,99730.13
2023-04-12T11:52:15.261Z,99728.41
2023-04-12T11:53:19.569Z,99731.33
2023-04-12T11:54:32.453Z,99725.15
2023-04-12T11:55:35.655Z,99722.80
2023-04-12T11:56:38.838Z,99720.27
2023-04-12T11:57:41.743Z,99722.67
2023-04-12T11:58:47.849Z,99717.08
2023-04-12T11:59:50.841Z,99717.08
2023-04-12T12:00:54.854Z,99714.16
2023-04-12T12:01:58.790Z,99714.91
2023-04-12T12:03:07.695Z,99713.39
2023-04-12T12:04:11.808Z,99710.86
2023-04-12T12:05:15.059Z,99714.61
2023-04-12T12:06:19.876Z,99706.39
2023-04-12T12:07:24.435Z,99713.88
2023-04-12T12:08:27.760Z,99708.68
2023-04-12T12:09:31.440Z,99702.13
2023-04-12T12:10:55.506Z,99706.83
2023-04-12T12:12:02.885Z,99701.75
2023-04-12T12:13:12.765Z,99698.86
2023-04-12T12:14:19.774Z,99698.15
2023-04-12T12:15:22.591Z,99696.69
2023-04-12T12:16:30.609Z,99694.66
2023-04-12T12:17:38.682Z,99696.66
2023-04-12T12:18:50.278Z,99695.04
2023-04-12T12:19:58.254Z,99694.95
2023-04-12T12:21:01.391Z,99693.05
2023-04-12T12:22:14.356Z,99690.95
2023-04-12T12:23:33.457Z,99691.16
2023-04-12T12:24:39.750Z,99690.51
2023-04-12T12:25:48.215Z,99686.08
2023-04-12T12:26:51.243Z,99682.33
2023-04-12T12:27:57.838Z,99682.06
2023-04-12T12:29:01.261Z,99681.67
2023-04-12T12:30:07.538Z,99678.25
2023-04-12T12:31:11.437Z,99677.56
2023-04-12T12:32:15.122Z,99671.91
2023-04-12T12:33:24.821Z,99670.30
2023-04-12T12:34:34.967Z,99671.44
2023-04-12T12:35:38.118Z,99666.63
2023-04-12T12:36:40.938Z,99670.63
2023-04-12T12:37:56.097Z,99667.91
2023-04-12T12:39:20.251Z,99666.63
2023-04-12T12:40:32.618Z,99663.30
2023-04-12T12:41:36.215Z,99664.55
2023-04-12T12:42:56.346Z,99661.73
2023-04-12T12:44:00.325Z,99661.60
2023-04-12T12:45:04.837Z,99660.58
2023-04-12T12:46:07.740Z,99661.54
2023-04-12T12:47:14.534Z,99660.95
2023-04-12T12:48:19.536Z,99656.04
2023-04-12T12:49:22.534Z,99656.27
2023-04-12T12:50:27.549Z,99655.14
2023-04-12T12:51:31.573Z,99657.75
2023-04-12T12:52:34.513Z,99657.91
2023-04-12T12:53:38.435Z,99654.49
2023-04-12T12:54:42.043Z,99653.80
2023-04-12T12:55:44.966Z,99656.95